Auance, South Dakota
Current Conditions -  °F | °C
As of 3:55 PM on Thursday 23 Oct 2014 (Local Time) from KPHP Reporting Station
Clear Clear  
Wind Chill: 70°   Ceiling: Unl
Heat Index: 70°   Visibility: 10mi
Dew Point: 30°   Wind: 7mph
Humidity: 23%   Direction: 230°SW
Pressure: 29.86"   Gusts: NA
Location:  44.8511°N, 102.128°W
Report Text: KPHP 232155Z AUTO 23006KT 10SM CLR 21/M01 A2986 RMK AO2 SLP109 T02111011
Loading
Personal Weather Stations






























Interactive Weather Map
Tropical Storm Tracking
New forecast layout! Learn more

10-Day Weather Forecast

Advertisements
Track Severe Weather on mobile